sensor_id;sensor_type;location;lat;lon;timestamp;temperature;humidity
2657;DHT22;1338;48.176;11.792;2023-04-24T00:01:45;9.50;1.00
2657;DHT22;1338;48.176;11.792;2023-04-24T00:04:13;9.50;99.90
2657;DHT22;1338;48.176;11.792;2023-04-24T00:06:45;9.50;1.00
2657;DHT22;1338;48.176;11.792;2023-04-24T00:09:16;9.50;99.90
2657;DHT22;1338;48.176;11.792;2023-04-24T00:11:44;9.50;1.00
2657;DHT22;1338;48.176;11.792;2023-04-24T00:14:12;9.40;1.00
2657;DHT22;1338;48.176;11.792;2023-04-24T00:16:40;9.40;1.00
2657;DHT22;1338;48.176;11.792;2023-04-24T00:19:09;9.40;1.00
2657;DHT22;1338;48.176;11.792;2023-04-24T00:21:39;9.30;1.00
2657;DHT22;1338;48.176;11.792;2023-04-24T00:24:09;9.30;1.00
2657;DHT22;1338;48.176;11.792;2023-04-24T00:26:37;9.30;1.00
2657;DHT22;1338;48.176;11.792;2023-04-24T00:29:05;9.20;1.00
2657;DHT22;1338;48.176;11.792;2023-04-24T00:31:33;9.20;1.00
2657;DHT22;1338;48.176;11.792;2023-04-24T00:34:03;9.20;1.00
2657;DHT22;1338;48.176;11.792;2023-04-24T00:36:32;9.00;1.00
2657;DHT22;1338;48.176;11.792;2023-04-24T00:39:00;9.10;1.00
2657;DHT22;1338;48.176;11.792;2023-04-24T00:41:30;9.10;1.00
2657;DHT22;1338;48.176;11.792;2023-04-24T00:43:58;9.10;1.00
2657;DHT22;1338;48.176;11.792;2023-04-24T00:46:27;9.00;1.00
2657;DHT22;1338;48.176;11.792;2023-04-24T00:48:56;9.00;1.00
2657;DHT22;1338;48.176;11.792;2023-04-24T00:51:24;8.90;1.00
2657;DHT22;1338;48.176;11.792;2023-04-24T00:53:52;8.90;1.00
2657;DHT22;1338;48.176;11.792;2023-04-24T00:56:20;8.90;1.00
2657;DHT22;1338;48.176;11.792;2023-04-24T00:58:50;9.00;1.00
2657;DHT22;1338;48.176;11.792;2023-04-24T01:01:19;9.00;1.00
2657;DHT22;1338;48.176;11.792;2023-04-24T01:03:52;8.90;1.00
2657;DHT22;1338;48.176;11.792;2023-04-24T01:06:22;9.00;1.00
2657;DHT22;1338;48.176;11.792;2023-04-24T01:08:52;8.90;1.00
2657;DHT22;1338;48.176;11.792;2023-04-24T01:11:21;8.90;1.00
2657;DHT22;1338;48.176;11.792;2023-04-24T01:13:50;9.00;1.00
2657;DHT22;1338;48.176;11.792;2023-04-24T01:16:19;9.00;1.00
2657;DHT22;1338;48.176;11.792;2023-04-24T01:18:48;9.00;1.00
2657;DHT22;1338;48.176;11.792;2023-04-24T01:21:18;9.00;1.00
2657;DHT22;1338;48.176;11.792;2023-04-24T01:23:51;9.00;1.00
2657;DHT22;1338;48.176;11.792;2023-04-24T01:26:19;9.00;1.00
2657;DHT22;1338;48.176;11.792;2023-04-24T01:28:48;9.10;99.90
2657;DHT22;1338;48.176;11.792;2023-04-24T01:31:16;9.10;99.90
2657;DHT22;1338;48.176;11.792;2023-04-24T01:33:44;9.20;99.90
2657;DHT22;1338;48.176;11.792;2023-04-24T01:36:13;9.20;99.90
2657;DHT22;1338;48.176;11.792;2023-04-24T01:38:42;9.20;99.90
2657;DHT22;1338;48.176;11.792;2023-04-24T01:41:12;9.20;99.90
2657;DHT22;1338;48.176;11.792;2023-04-24T01:43:41;9.20;99.90
2657;DHT22;1338;48.176;11.792;2023-04-24T01:46:09;9.20;99.90
2657;DHT22;1338;48.176;11.792;2023-04-24T01:48:37;9.20;99.90
2657;DHT22;1338;48.176;11.792;2023-04-24T01:51:05;9.20;79.40
2657;DHT22;1338;48.176;11.792;2023-04-24T01:53:34;9.10;48.60
2657;DHT22;1338;48.176;11.792;2023-04-24T01:56:02;9.20;73.70
2657;DHT22;1338;48.176;11.792;2023-04-24T01:58:32;9.10;99.90
2657;DHT22;1338;48.176;11.792;2023-04-24T02:01:01;9.20;69.40
2657;DHT22;1338;48.176;11.792;2023-04-24T02:03:29;9.10;1.00
2657;DHT22;1338;48.176;11.792;2023-04-24T02:05:58;9.10;1.00
2657;DHT22;1338;48.176;11.792;2023-04-24T02:08:26;9.00;51.60
2657;DHT22;1338;48.176;11.792;2023-04-24T02:10:54;9.00;1.00
2657;DHT22;1338;48.176;11.792;2023-04-24T02:13:24;9.00;1.00
2657;DHT22;1338;48.176;11.792;2023-04-24T02:15:53;9.00;1.00
2657;DHT22;1338;48.176;11.792;2023-04-24T02:18:22;9.10;1.00
2657;DHT22;1338;48.176;11.792;2023-04-24T02:20:51;9.00;1.00
2657;DHT22;1338;48.176;11.792;2023-04-24T02:23:20;9.00;1.00
2657;DHT22;1338;48.176;11.792;2023-04-24T02:25:48;9.00;1.00
2657;DHT22;1338;48.176;11.792;2023-04-24T02:28:16;9.00;1.00
2657;DHT22;1338;48.176;11.792;2023-04-24T02:30:45;9.00;1.00
2657;DHT22;1338;48.176;11.792;2023-04-24T02:33:14;8.90;1.00
2657;DHT22;1338;48.176;11.792;2023-04-24T02:35:42;8.90;1.00
2657;DHT22;1338;48.176;11.792;2023-04-24T02:38:10;8.90;1.00
2657;DHT22;1338;48.176;11.792;2023-04-24T02:40:39;9.00;1.00
2657;DHT22;1338;48.176;11.792;2023-04-24T02:43:09;8.90;1.00
2657;DHT22;1338;48.176;11.792;2023-04-24T02:45:37;8.90;1.00
2657;DHT22;1338;48.176;11.792;2023-04-24T02:48:05;9.00;1.00
2657;DHT22;1338;48.176;11.792;2023-04-24T02:50:35;8.90;1.00
2657;DHT22;1338;48.176;11.792;2023-04-24T02:53:03;8.90;1.00
2657;DHT22;1338;48.176;11.792;2023-04-24T02:55:32;8.90;1.00
2657;DHT22;1338;48.176;11.792;2023-04-24T02:58:00;8.90;1.00
2657;DHT22;1338;48.176;11.792;2023-04-24T03:00:28;8.90;1.00
2657;DHT22;1338;48.176;11.792;2023-04-24T03:02:56;8.90;1.00
2657;DHT22;1338;48.176;11.792;2023-04-24T03:05:24;8.80;1.00
2657;DHT22;1338;48.176;11.792;2023-04-24T03:07:55;8.90;1.00
2657;DHT22;1338;48.176;11.792;2023-04-24T03:10:23;8.80;1.00
2657;DHT22;1338;48.176;11.792;2023-04-24T03:12:51;8.80;1.00
2657;DHT22;1338;48.176;11.792;2023-04-24T03:15:19;8.70;1.00
2657;DHT22;1338;48.176;11.792;2023-04-24T03:17:47;8.70;1.00
2657;DHT22;1338;48.176;11.792;2023-04-24T03:20:16;8.70;1.00
2657;DHT22;1338;48.176;11.792;2023-04-24T03:22:44;8.60;42.90
2657;DHT22;1338;48.176;11.792;2023-04-24T03:25:13;8.60;99.90
2657;DHT22;1338;48.176;11.792;2023-04-24T03:27:42;8.60;99.90
2657;DHT22;1338;48.176;11.792;2023-04-24T03:30:39;8.60;99.90
2657;DHT22;1338;48.176;11.792;2023-04-24T03:33:08;8.50;99.90
2657;DHT22;1338;48.176;11.792;2023-04-24T03:35:43;8.50;99.90
2657;DHT22;1338;48.176;11.792;2023-04-24T03:38:12;8.40;99.90
2657;DHT22;1338;48.176;11.792;2023-04-24T03:40:44;8.50;99.90
2657;DHT22;1338;48.176;11.792;2023-04-24T03:43:31;8.40;99.90
2657;DHT22;1338;48.176;11.792;2023-04-24T03:46:00;8.40;99.90
2657;DHT22;1338;48.176;11.792;2023-04-24T03:48:31;8.40;99.90
2657;DHT22;1338;48.176;11.792;2023-04-24T03:51:01;8.40;99.90
2657;DHT22;1338;48.176;11.792;2023-04-24T03:53:30;8.40;99.90
2657;DHT22;1338;48.176;11.792;2023-04-24T03:56:00;8.30;99.90
2657;DHT22;1338;48.176;11.792;2023-04-24T03:58:29;8.30;99.90
2657;DHT22;1338;48.176;11.792;2023-04-24T04:00:58;8.30;99.90
2657;DHT22;1338;48.176;11.792;2023-04-24T04:03:47;8.30;99.90
2657;DHT22;1338;48.176;11.792;2023-04-24T04:06:19;8.30;99.90
2657;DHT22;1338;48.176;11.792;2023-04-24T04:08:50;8.30;1.00
2657;DHT22;1338;48.176;11.792;2023-04-24T04:11:19;8.20;1.00
2657;DHT22;1338;48.176;11.792;2023-04-24T04:13:47;8.20;1.00
2657;DHT22;1338;48.176;11.792;2023-04-24T04:16:18;8.20;1.00
2657;DHT22;1338;48.176;11.792;2023-04-24T04:18:49;8.20;1.00
2657;DHT22;1338;48.176;11.792;2023-04-24T04:21:17;8.10;1.00
2657;DHT22;1338;48.176;11.792;2023-04-24T04:23:46;8.10;1.00
2657;DHT22;1338;48.176;11.792;2023-04-24T04:26:22;8.10;1.00
2657;DHT22;1338;48.176;11.792;2023-04-24T04:29:02;8.10;1.00
2657;DHT22;1338;48.176;11.792;2023-04-24T04:31:32;8.10;1.00
2657;DHT22;1338;48.176;11.792;2023-04-24T04:34:06;8.10;1.00
2657;DHT22;1338;48.176;11.792;2023-04-24T04:36:34;8.00;1.00
2657;DHT22;1338;48.176;11.792;2023-04-24T04:39:26;8.00;1.00
2657;DHT22;1338;48.176;11.792;2023-04-24T04:42:07;8.10;1.00
2657;DHT22;1338;48.176;11.792;2023-04-24T04:44:39;8.10;1.00
2657;DHT22;1338;48.176;11.792;2023-04-24T04:47:11;8.10;1.00
2657;DHT22;1338;48.176;11.792;2023-04-24T04:49:40;8.00;1.00
2657;DHT22;1338;48.176;11.792;2023-04-24T04:52:19;8.10;1.00
2657;DHT22;1338;48.176;11.792;2023-04-24T04:54:57;8.20;1.00
2657;DHT22;1338;48.176;11.792;2023-04-24T04:57:38;8.30;99.90
2657;DHT22;1338;48.176;11.792;2023-04-24T05:00:07;8.30;1.00
2657;DHT22;1338;48.176;11.792;2023-04-24T05:02:45;8.20;1.00
2657;DHT22;1338;48.176;11.792;2023-04-24T05:05:15;8.40;99.90
2657;DHT22;1338;48.176;11.792;2023-04-24T05:07:44;8.30;99.90
2657;DHT22;1338;48.176;11.792;2023-04-24T05:10:13;8.40;99.90
2657;DHT22;1338;48.176;11.792;2023-04-24T05:12:42;8.40;99.90
2657;DHT22;1338;48.176;11.792;2023-04-24T05:15:12;8.40;99.90
2657;DHT22;1338;48.176;11.792;2023-04-24T05:17:40;8.40;99.90
2657;DHT22;1338;48.176;11.792;2023-04-24T05:20:09;8.50;99.90
2657;DHT22;1338;48.176;11.792;2023-04-24T05:22:38;8.40;99.90
2657;DHT22;1338;48.176;11.792;2023-04-24T05:25:07;8.50;99.90
2657;DHT22;1338;48.176;11.792;2023-04-24T05:27:52;8.50;99.90
2657;DHT22;1338;48.176;11.792;2023-04-24T05:30:22;8.50;99.90
2657;DHT22;1338;48.176;11.792;2023-04-24T05:32:50;8.60;99.90
2657;DHT22;1338;48.176;11.792;2023-04-24T05:35:18;8.60;99.90
2657;DHT22;1338;48.176;11.792;2023-04-24T05:37:47;8.60;99.90
2657;DHT22;1338;48.176;11.792;2023-04-24T05:40:16;8.60;99.90
2657;DHT22;1338;48.176;11.792;2023-04-24T05:42:44;8.70;99.90
2657;DHT22;1338;48.176;11.792;2023-04-24T05:45:14;8.70;99.90
2657;DHT22;1338;48.176;11.792;2023-04-24T05:47:43;8.70;99.90
2657;DHT22;1338;48.176;11.792;2023-04-24T05:50:12;8.80;67.90
2657;DHT22;1338;48.176;11.792;2023-04-24T05:52:40;8.80;50.50
2657;DHT22;1338;48.176;11.792;2023-04-24T05:55:23;8.90;1.00
2657;DHT22;1338;48.176;11.792;2023-04-24T05:57:51;8.90;1.00
2657;DHT22;1338;48.176;11.792;2023-04-24T06:00:23;8.90;1.00
2657;DHT22;1338;48.176;11.792;2023-04-24T06:03:00;9.00;1.00
2657;DHT22;1338;48.176;11.792;2023-04-24T06:05:31;9.00;1.00
2657;DHT22;1338;48.176;11.792;2023-04-24T06:08:02;9.10;1.00
2657;DHT22;1338;48.176;11.792;2023-04-24T06:10:35;9.10;1.00
2657;DHT22;1338;48.176;11.792;2023-04-24T06:13:04;9.20;1.00
2657;DHT22;1338;48.176;11.792;2023-04-24T06:15:37;9.20;1.00
2657;DHT22;1338;48.176;11.792;2023-04-24T06:18:31;9.20;1.00
2657;DHT22;1338;48.176;11.792;2023-04-24T06:20:59;9.20;1.00
2657;DHT22;1338;48.176;11.792;2023-04-24T06:23:29;9.30;1.00
2657;DHT22;1338;48.176;11.792;2023-04-24T06:25:59;9.30;1.00
2657;DHT22;1338;48.176;11.792;2023-04-24T06:28:27;9.30;1.00
2657;DHT22;1338;48.176;11.792;2023-04-24T06:30:57;9.30;1.00
2657;DHT22;1338;48.176;11.792;2023-04-24T06:33:25;9.30;1.00
2657;DHT22;1338;48.176;11.792;2023-04-24T06:35:54;9.40;1.00
2657;DHT22;1338;48.176;11.792;2023-04-24T06:38:22;9.50;1.00
2657;DHT22;1338;48.176;11.792;2023-04-24T06:40:50;9.40;1.00
2657;DHT22;1338;48.176;11.792;2023-04-24T06:43:18;9.50;1.00
2657;DHT22;1338;48.176;11.792;2023-04-24T06:45:47;9.60;1.00
2657;DHT22;1338;48.176;11.792;2023-04-24T06:48:16;9.50;1.00
2657;DHT22;1338;48.176;11.792;2023-04-24T06:50:44;9.50;1.00
2657;DHT22;1338;48.176;11.792;2023-04-24T06:53:13;9.60;1.00
2657;DHT22;1338;48.176;11.792;2023-04-24T06:55:42;9.50;1.00
2657;DHT22;1338;48.176;11.792;2023-04-24T06:58:11;9.60;1.00
2657;DHT22;1338;48.176;11.792;2023-04-24T07:00:40;9.70;1.00
2657;DHT22;1338;48.176;11.792;2023-04-24T07:03:09;9.70;1.00
2657;DHT22;1338;48.176;11.792;2023-04-24T07:05:38;9.80;1.00
2657;DHT22;1338;48.176;11.792;2023-04-24T07:08:06;9.70;1.00
2657;DHT22;1338;48.176;11.792;2023-04-24T07:10:38;9.80;1.00
2657;DHT22;1338;48.176;11.792;2023-04-24T07:13:06;9.90;1.00
2657;DHT22;1338;48.176;11.792;2023-04-24T07:15:35;10.00;1.00
2657;DHT22;1338;48.176;11.792;2023-04-24T07:18:03;10.10;1.00
2657;DHT22;1338;48.176;11.792;2023-04-24T07:20:32;10.00;1.00
2657;DHT22;1338;48.176;11.792;2023-04-24T07:23:02;10.10;1.00
2657;DHT22;1338;48.176;11.792;2023-04-24T07:25:30;10.20;1.00
2657;DHT22;1338;48.176;11.792;2023-04-24T07:27:58;10.30;1.00
2657;DHT22;1338;48.176;11.792;2023-04-24T07:30:26;10.40;1.00
2657;DHT22;1338;48.176;11.792;2023-04-24T07:32:55;10.40;99.90
2657;DHT22;1338;48.176;11.792;2023-04-24T07:35:23;10.60;99.90
2657;DHT22;1338;48.176;11.792;2023-04-24T07:37:52;10.70;99.90
2657;DHT22;1338;48.176;11.792;2023-04-24T07:40:22;10.90;1.00
2657;DHT22;1338;48.176;11.792;2023-04-24T07:42:50;10.80;99.90
2657;DHT22;1338;48.176;11.792;2023-04-24T07:45:18;10.90;99.90
2657;DHT22;1338;48.176;11.792;2023-04-24T07:47:47;10.90;99.90
2657;DHT22;1338;48.176;11.792;2023-04-24T07:50:15;10.90;99.90
2657;DHT22;1338;48.176;11.792;2023-04-24T07:52:43;11.10;99.90
2657;DHT22;1338;48.176;11.792;2023-04-24T07:55:11;11.20;99.90
2657;DHT22;1338;48.176;11.792;2023-04-24T07:57:41;11.20;99.90
2657;DHT22;1338;48.176;11.792;2023-04-24T08:00:10;11.10;99.90
2657;DHT22;1338;48.176;11.792;2023-04-24T08:02:38;11.00;99.90
2657;DHT22;1338;48.176;11.792;2023-04-24T08:05:07;10.70;99.90
2657;DHT22;1338;48.176;11.792;2023-04-24T08:07:36;10.70;99.90
2657;DHT22;1338;48.176;11.792;2023-04-24T08:10:05;10.70;99.90
2657;DHT22;1338;48.176;11.792;2023-04-24T08:12:33;10.70;99.90
2657;DHT22;1338;48.176;11.792;2023-04-24T08:15:03;10.70;99.90
2657;DHT22;1338;48.176;11.792;2023-04-24T08:17:31;10.70;99.90
2657;DHT22;1338;48.176;11.792;2023-04-24T08:20:00;10.70;99.90
2657;DHT22;1338;48.176;11.792;2023-04-24T08:22:29;10.70;99.90
2657;DHT22;1338;48.176;11.792;2023-04-24T08:24:59;10.80;99.90
2657;DHT22;1338;48.176;11.792;2023-04-24T08:27:27;10.90;99.90
2657;DHT22;1338;48.176;11.792;2023-04-24T08:29:56;10.90;99.90
2657;DHT22;1338;48.176;11.792;2023-04-24T08:32:26;11.10;99.90
2657;DHT22;1338;48.176;11.792;2023-04-24T08:34:55;11.10;99.90
2657;DHT22;1338;48.176;11.792;2023-04-24T08:37:25;11.10;99.90
2657;DHT22;1338;48.176;11.792;2023-04-24T08:39:53;11.20;99.90
2657;DHT22;1338;48.176;11.792;2023-04-24T08:42:21;11.10;99.90
2657;DHT22;1338;48.176;11.792;2023-04-24T08:44:50;10.90;99.90
2657;DHT22;1338;48.176;11.792;2023-04-24T08:47:20;10.80;99.90
2657;DHT22;1338;48.176;11.792;2023-04-24T08:49:50;10.70;99.90
2657;DHT22;1338;48.176;11.792;2023-04-24T08:52:19;10.50;99.90
2657;DHT22;1338;48.176;11.792;2023-04-24T08:54:48;9.90;1.00
2657;DHT22;1338;48.176;11.792;2023-04-24T08:57:17;9.90;1.00
2657;DHT22;1338;48.176;11.792;2023-04-24T08:59:46;9.80;1.00
2657;DHT22;1338;48.176;11.792;2023-04-24T09:02:16;9.60;1.00
2657;DHT22;1338;48.176;11.792;2023-04-24T09:04:45;9.40;1.00
2657;DHT22;1338;48.176;11.792;2023-04-24T09:07:16;9.50;1.00
2657;DHT22;1338;48.176;11.792;2023-04-24T09:09:45;9.60;1.00
2657;DHT22;1338;48.176;11.792;2023-04-24T09:12:14;9.90;1.00
2657;DHT22;1338;48.176;11.792;2023-04-24T09:14:42;10.00;1.00
2657;DHT22;1338;48.176;11.792;2023-04-24T09:17:12;10.10;99.90
2657;DHT22;1338;48.176;11.792;2023-04-24T09:19:40;10.10;99.90
2657;DHT22;1338;48.176;11.792;2023-04-24T09:22:09;9.90;99.90
2657;DHT22;1338;48.176;11.792;2023-04-24T09:24:39;10.00;99.90
2657;DHT22;1338;48.176;11.792;2023-04-24T09:27:07;9.90;99.90
2657;DHT22;1338;48.176;11.792;2023-04-24T09:29:39;9.90;99.90
2657;DHT22;1338;48.176;11.792;2023-04-24T09:32:20;10.00;99.90
2657;DHT22;1338;48.176;11.792;2023-04-24T09:34:49;9.90;99.90
2657;DHT22;1338;48.176;11.792;2023-04-24T09:37:28;10.20;99.90
2657;DHT22;1338;48.176;11.792;2023-04-24T09:40:14;10.30;99.90
2657;DHT22;1338;48.176;11.792;2023-04-24T09:42:46;10.60;99.90
2657;DHT22;1338;48.176;11.792;2023-04-24T09:45:20;10.60;99.90
2657;DHT22;1338;48.176;11.792;2023-04-24T09:47:52;10.60;99.90
2657;DHT22;1338;48.176;11.792;2023-04-24T09:50:21;10.60;99.90
2657;DHT22;1338;48.176;11.792;2023-04-24T09:52:57;10.60;99.90
2657;DHT22;1338;48.176;11.792;2023-04-24T09:55:26;10.80;99.90
2657;DHT22;1338;48.176;11.792;2023-04-24T09:57:57;10.80;99.90
2657;DHT22;1338;48.176;11.792;2023-04-24T10:00:28;10.90;99.90
2657;DHT22;1338;48.176;11.792;2023-04-24T10:02:57;11.30;99.90
2657;DHT22;1338;48.176;11.792;2023-04-24T10:05:30;11.30;99.90
2657;DHT22;1338;48.176;11.792;2023-04-24T10:08:04;11.50;99.90
2657;DHT22;1338;48.176;11.792;2023-04-24T10:10:38;11.20;99.90
2657;DHT22;1338;48.176;11.792;2023-04-24T10:13:07;11.30;99.90
2657;DHT22;1338;48.176;11.792;2023-04-24T10:15:35;11.40;99.90
2657;DHT22;1338;48.176;11.792;2023-04-24T10:18:06;11.50;99.90
2657;DHT22;1338;48.176;11.792;2023-04-24T10:20:36;11.60;99.90
2657;DHT22;1338;48.176;11.792;2023-04-24T10:23:05;11.20;99.90
2657;DHT22;1338;48.176;11.792;2023-04-24T10:25:35;11.20;99.90
2657;DHT22;1338;48.176;11.792;2023-04-24T10:28:04;11.40;99.90
2657;DHT22;1338;48.176;11.792;2023-04-24T10:30:35;11.30;99.90
2657;DHT22;1338;48.176;11.792;2023-04-24T10:33:05;11.40;99.90
2657;DHT22;1338;48.176;11.792;2023-04-24T10:35:36;11.50;99.90
2657;DHT22;1338;48.176;11.792;2023-04-24T10:38:08;11.50;99.90
2657;DHT22;1338;48.176;11.792;2023-04-24T10:40:38;11.50;99.90
2657;DHT22;1338;48.176;11.792;2023-04-24T10:43:07;11.70;99.90
2657;DHT22;1338;48.176;11.792;2023-04-24T10:45:38;12.20;99.90
2657;DHT22;1338;48.176;11.792;2023-04-24T10:48:07;12.00;99.90
2657;DHT22;1338;48.176;11.792;2023-04-24T10:50:45;12.10;99.90
2657;DHT22;1338;48.176;11.792;2023-04-24T10:53:15;11.90;99.90
2657;DHT22;1338;48.176;11.792;2023-04-24T10:55:47;12.30;99.90
2657;DHT22;1338;48.176;11.792;2023-04-24T10:58:15;12.10;99.90
2657;DHT22;1338;48.176;11.792;2023-04-24T11:00:55;12.00;99.90
2657;DHT22;1338;48.176;11.792;2023-04-24T11:03:26;11.60;99.90
2657;DHT22;1338;48.176;11.792;2023-04-24T11:06:00;11.80;99.90
2657;DHT22;1338;48.176;11.792;2023-04-24T11:08:37;11.60;99.90
2657;DHT22;1338;48.176;11.792;2023-04-24T11:11:11;10.80;99.90
2657;DHT22;1338;48.176;11.792;2023-04-24T11:14:02;8.80;99.90
2657;DHT22;1338;48.176;11.792;2023-04-24T11:16:32;8.40;1.00
2657;DHT22;1338;48.176;11.792;2023-04-24T11:19:03;8.30;1.00
2657;DHT22;1338;48.176;11.792;2023-04-24T11:21:32;8.30;1.00
2657;DHT22;1338;48.176;11.792;2023-04-24T11:24:24;8.40;1.00
2657;DHT22;1338;48.176;11.792;2023-04-24T11:26:55;8.50;1.00
2657;DHT22;1338;48.176;11.792;2023-04-24T11:29:38;8.70;1.00
2657;DHT22;1338;48.176;11.792;2023-04-24T11:32:18;9.10;1.00
2657;DHT22;1338;48.176;11.792;2023-04-24T11:34:47;9.60;1.00
2657;DHT22;1338;48.176;11.792;2023-04-24T11:37:16;9.80;1.00
2657;DHT22;1338;48.176;11.792;2023-04-24T11:39:44;10.00;1.00
2657;DHT22;1338;48.176;11.792;2023-04-24T11:42:15;10.50;1.00
2657;DHT22;1338;48.176;11.792;2023-04-24T11:44:43;11.10;1.00
2657;DHT22;1338;48.176;11.792;2023-04-24T11:47:14;10.90;99.90
2657;DHT22;1338;48.176;11.792;2023-04-24T11:49:42;10.90;99.90
2657;DHT22;1338;48.176;11.792;2023-04-24T11:52:10;10.90;99.90
2657;DHT22;1338;48.176;11.792;2023-04-24T11:54:47;10.90;99.90
2657;DHT22;1338;48.176;11.792;2023-04-24T11:57:18;10.90;99.90
2657;DHT22;1338;48.176;11.792;2023-04-24T11:59:48;10.90;99.90
2657;DHT22;1338;48.176;11.792;2023-04-24T12:02:21;11.20;99.90
2657;DHT22;1338;48.176;11.792;2023-04-24T12:04:50;11.10;99.90
2657;DHT22;1338;48.176;11.792;2023-04-24T12:07:19;10.80;99.90
2657;DHT22;1338;48.176;11.792;2023-04-24T12:09:48;11.20;99.90
2657;DHT22;1338;48.176;11.792;2023-04-24T12:12:19;11.60;99.90
2657;DHT22;1338;48.176;11.792;2023-04-24T12:14:49;12.00;99.90
2657;DHT22;1338;48.176;11.792;2023-04-24T12:17:17;11.70;99.90
2657;DHT22;1338;48.176;11.792;2023-04-24T12:19:46;11.60;99.90
2657;DHT22;1338;48.176;11.792;2023-04-24T12:22:15;12.00;99.90
2657;DHT22;1338;48.176;11.792;2023-04-24T12:24:56;11.90;99.90
2657;DHT22;1338;48.176;11.792;2023-04-24T12:27:26;12.10;99.90
2657;DHT22;1338;48.176;11.792;2023-04-24T12:29:56;12.50;99.90
2657;DHT22;1338;48.176;11.792;2023-04-24T12:32:25;12.70;99.90
2657;DHT22;1338;48.176;11.792;2023-04-24T12:34:55;12.80;99.90
2657;DHT22;1338;48.176;11.792;2023-04-24T12:37:24;12.70;99.90
2657;DHT22;1338;48.176;11.792;2023-04-24T12:40:00;12.70;99.90
2657;DHT22;1338;48.176;11.792;2023-04-24T12:42:30;13.10;99.90
2657;DHT22;1338;48.176;11.792;2023-04-24T12:45:00;12.30;99.90
2657;DHT22;1338;48.176;11.792;2023-04-24T12:47:28;12.30;99.90
2657;DHT22;1338;48.176;11.792;2023-04-24T12:49:56;12.30;99.90
2657;DHT22;1338;48.176;11.792;2023-04-24T12:52:26;12.30;99.90
2657;DHT22;1338;48.176;11.792;2023-04-24T12:54:57;12.30;99.90
2657;DHT22;1338;48.176;11.792;2023-04-24T12:57:26;12.90;99.90
2657;DHT22;1338;48.176;11.792;2023-04-24T12:59:57;12.60;92.90
2657;DHT22;1338;48.176;11.792;2023-04-24T13:02:27;12.80;90.50
2657;DHT22;1338;48.176;11.792;2023-04-24T13:04:56;12.80;72.50
2657;DHT22;1338;48.176;11.792;2023-04-24T13:07:25;12.60;64.00
2657;DHT22;1338;48.176;11.792;2023-04-24T13:09:54;12.60;53.20
2657;DHT22;1338;48.176;11.792;2023-04-24T13:12:23;12.40;48.60
2657;DHT22;1338;48.176;11.792;2023-04-24T13:14:52;12.30;30.80
2657;DHT22;1338;48.176;11.792;2023-04-24T13:17:22;12.10;29.80
2657;DHT22;1338;48.176;11.792;2023-04-24T13:19:51;12.00;20.70
2657;DHT22;1338;48.176;11.792;2023-04-24T13:22:20;11.60;19.30
2657;DHT22;1338;48.176;11.792;2023-04-24T13:24:48;11.50;6.10
2657;DHT22;1338;48.176;11.792;2023-04-24T13:27:17;11.30;5.80
2657;DHT22;1338;48.176;11.792;2023-04-24T13:29:46;11.30;10.50
2657;DHT22;1338;48.176;11.792;2023-04-24T13:32:14;11.30;19.20
2657;DHT22;1338;48.176;11.792;2023-04-24T13:34:43;10.90;39.00
2657;DHT22;1338;48.176;11.792;2023-04-24T13:37:11;10.80;60.00
2657;DHT22;1338;48.176;11.792;2023-04-24T13:39:40;10.80;82.10
2657;DHT22;1338;48.176;11.792;2023-04-24T13:42:09;10.80;99.90
2657;DHT22;1338;48.176;11.792;2023-04-24T13:44:37;11.30;99.90
2657;DHT22;1338;48.176;11.792;2023-04-24T13:47:05;11.70;93.40
2657;DHT22;1338;48.176;11.792;2023-04-24T13:49:34;12.30;64.70
2657;DHT22;1338;48.176;11.792;2023-04-24T13:52:03;12.90;70.00
2657;DHT22;1338;48.176;11.792;2023-04-24T13:54:32;13.00;31.00
2657;DHT22;1338;48.176;11.792;2023-04-24T13:57:00;13.40;20.90
2657;DHT22;1338;48.176;11.792;2023-04-24T13:59:29;13.50;8.80
2657;DHT22;1338;48.176;11.792;2023-04-24T14:01:57;13.00;16.50
2657;DHT22;1338;48.176;11.792;2023-04-24T14:04:26;12.80;10.50
2657;DHT22;1338;48.176;11.792;2023-04-24T14:06:54;12.60;24.90
2657;DHT22;1338;48.176;11.792;2023-04-24T14:09:24;12.40;4.00
2657;DHT22;1338;48.176;11.792;2023-04-24T14:11:52;12.30;1.00
2657;DHT22;1338;48.176;11.792;2023-04-24T14:14:20;12.30;1.00
2657;DHT22;1338;48.176;11.792;2023-04-24T14:16:48;12.70;1.00
2657;DHT22;1338;48.176;11.792;2023-04-24T14:19:17;13.10;1.00
2657;DHT22;1338;48.176;11.792;2023-04-24T14:21:45;12.80;1.00
2657;DHT22;1338;48.176;11.792;2023-04-24T14:24:13;12.60;1.00
2657;DHT22;1338;48.176;11.792;2023-04-24T14:26:43;12.50;1.00
2657;DHT22;1338;48.176;11.792;2023-04-24T14:29:11;12.40;1.00
2657;DHT22;1338;48.176;11.792;2023-04-24T14:31:41;12.30;1.00
2657;DHT22;1338;48.176;11.792;2023-04-24T14:34:09;12.20;1.00
2657;DHT22;1338;48.176;11.792;2023-04-24T14:36:37;12.10;1.00
2657;DHT22;1338;48.176;11.792;2023-04-24T14:39:06;12.10;1.00
2657;DHT22;1338;48.176;11.792;2023-04-24T14:41:34;12.10;1.00
2657;DHT22;1338;48.176;11.792;2023-04-24T14:44:05;12.10;1.00
2657;DHT22;1338;48.176;11.792;2023-04-24T14:46:33;12.10;1.00
2657;DHT22;1338;48.176;11.792;2023-04-24T14:49:02;12.10;1.00
2657;DHT22;1338;48.176;11.792;2023-04-24T14:51:30;12.20;1.00
2657;DHT22;1338;48.176;11.792;2023-04-24T14:53:58;12.40;1.00
2657;DHT22;1338;48.176;11.792;2023-04-24T14:56:26;12.30;1.00
2657;DHT22;1338;48.176;11.792;2023-04-24T14:58:55;12.40;1.00
2657;DHT22;1338;48.176;11.792;2023-04-24T15:01:24;12.30;1.00
2657;DHT22;1338;48.176;11.792;2023-04-24T15:03:52;12.20;1.00
2657;DHT22;1338;48.176;11.792;2023-04-24T15:06:21;12.20;1.00
2657;DHT22;1338;48.176;11.792;2023-04-24T15:08:49;12.10;1.00
2657;DHT22;1338;48.176;11.792;2023-04-24T15:11:17;12.10;1.00
2657;DHT22;1338;48.176;11.792;2023-04-24T15:13:45;12.20;1.00
2657;DHT22;1338;48.176;11.792;2023-04-24T15:16:13;12.20;1.00
2657;DHT22;1338;48.176;11.792;2023-04-24T15:18:44;12.40;1.00
2657;DHT22;1338;48.176;11.792;2023-04-24T15:21:13;12.30;1.00
2657;DHT22;1338;48.176;11.792;2023-04-24T15:23:41;12.30;1.00
2657;DHT22;1338;48.176;11.792;2023-04-24T15:26:09;12.20;1.00
2657;DHT22;1338;48.176;11.792;2023-04-24T15:28:37;12.30;1.00
2657;DHT22;1338;48.176;11.792;2023-04-24T15:31:05;12.40;1.00
2657;DHT22;1338;48.176;11.792;2023-04-24T15:33:33;12.20;1.00
2657;DHT22;1338;48.176;11.792;2023-04-24T15:36:04;12.60;1.00
2657;DHT22;1338;48.176;11.792;2023-04-24T15:38:32;12.30;1.00
2657;DHT22;1338;48.176;11.792;2023-04-24T15:41:00;12.00;1.00
2657;DHT22;1338;48.176;11.792;2023-04-24T15:43:28;11.90;1.00
2657;DHT22;1338;48.176;11.792;2023-04-24T15:45:57;11.70;1.00
2657;DHT22;1338;48.176;11.792;2023-04-24T15:48:27;12.00;1.00
2657;DHT22;1338;48.176;11.792;2023-04-24T15:50:55;11.80;1.00
2657;DHT22;1338;48.176;11.792;2023-04-24T15:53:25;11.60;1.00
2657;DHT22;1338;48.176;11.792;2023-04-24T15:55:54;11.60;1.00
2657;DHT22;1338;48.176;11.792;2023-04-24T15:58:24;11.50;1.00
2657;DHT22;1338;48.176;11.792;2023-04-24T16:00:52;11.60;1.00
2657;DHT22;1338;48.176;11.792;2023-04-24T16:03:20;11.70;1.00
2657;DHT22;1338;48.176;11.792;2023-04-24T16:05:49;11.70;1.00
2657;DHT22;1338;48.176;11.792;2023-04-24T16:08:17;11.60;1.00
2657;DHT22;1338;48.176;11.792;2023-04-24T16:10:48;11.70;1.00
2657;DHT22;1338;48.176;11.792;2023-04-24T16:13:16;11.80;1.00
2657;DHT22;1338;48.176;11.792;2023-04-24T16:15:44;11.70;1.00
2657;DHT22;1338;48.176;11.792;2023-04-24T16:18:13;11.60;1.00
2657;DHT22;1338;48.176;11.792;2023-04-24T16:20:41;11.60;1.00